Latest Weather Observations for Cooma Airport

IDN60901

Issued at 8:21 am EST Friday 23 June 2017 (issued every 10 minutes, with the page automatically refreshed every 10 minutes)

About weather observations | Map of Canberra area stations | Latest observations for Canberra area | Other Formats
Station Details ID: 070217 Name: COOMA AIRPORT AWS Lat: -36.29 Lon: 148.97 Height: 930.0 m
Data from the previous 72 hours. | See also: Recent months at Cooma Airport
Date/Time
EST
Temp
°C
App
Temp
°C
Dew
Point
°C
Rel
Hum
%
Delta-T
°C
Wind Press
QNH
hPa
Press
MSL
hPa
Rain since
9am
mm
Dir  Spd
km/h
Gust
km/h
Spd
kts
Gust
kts
23/08:00am -5.5 -8.5 -5.6 99 -0.2 NNE 2 6 1 3 1019.1 1020.4 0.0
23/07:30am -8.2 -12.5 -9.0 94 -0.1 NE 7 9 4 5 1019.1 1020.4 0.0
23/07:00am -7.3 -10.1 -7.4 99 -0.2 CALM 0 0 0 0 1018.8 1020.1 0.0
23/06:38am -7.8 -10.7 -8.1 98 -0.2 CALM 0 0 0 0 1019.1 1020.4 0.0
23/06:34am -7.2 -10.0 -7.3 99 -0.2 CALM 0 0 0 0 1019.1 1020.4 0.0
23/06:30am -7.4 -10.3 -7.5 99 -0.2 CALM 0 0 0 0 1019.0 1020.2 0.0
23/06:02am -7.6 -10.5 -8.0 97 -0.2 CALM 0 0 0 0 1019.1 1020.4 0.0
23/06:00am -7.7 -10.6 -8.1 97 -0.2 CALM 0 6 0 3 1019.1 1020.4 0.0
23/05:39am -7.2 -10.0 -7.3 99 -0.2 CALM 0 0 0 0 1019.0 1020.2 0.0
23/05:30am -7.0 -9.8 -7.1 99 -0.2 CALM 0 6 0 3 1019.0 1020.2 0.0
23/05:09am -6.7 -10.6 -6.8 99 -0.2 ENE 6 7 3 4 1019.1 1020.4 0.0
23/05:00am -6.9 -10.1 -7.0 99 -0.2 SSE 2 6 1 3 1019.2 1020.5 0.0
23/04:58am -6.2 -8.9 -6.3 99 -0.2 CALM 0 6 0 3 1019.2 1020.5 0.0
23/04:54am -6.6 -9.8 -6.7 99 -0.2 S 2 9 1 5 1019.3 1020.6 0.0
23/04:52am -6.7 -10.2 -6.8 99 -0.2 S 4 9 2 5 1019.3 1020.6 0.0
23/04:30am -6.1 -8.8 -6.2 99 -0.2 CALM 0 6 0 3 1019.4 1020.7 0.0
23/04:00am -6.3 -10.2 -6.4 99 -0.2 N 6 7 3 4 1019.6 1020.9 0.0
23/03:30am -5.7 -8.4 -5.8 99 -0.2 CALM 0 0 0 0 1020.0 1021.4 0.0
23/03:00am -5.1 -7.7 -5.2 99 -0.2 CALM 0 0 0 0 1020.4 1021.7 0.0
23/02:57am -5.1 -7.7 -5.2 99 -0.2 CALM 0 0 0 0 1020.4 1021.7 0.0
23/02:30am -5.5 -8.2 -5.6 99 -0.2 CALM 0 0 0 0 1020.7 1022.0 0.0
23/02:22am -5.9 -8.6 -6.3 97 -0.1 CALM 0 0 0 0 1020.8 1022.1 0.0
23/02:00am -5.6 -8.3 -6.3 95 0.0 CALM 0 0 0 0 1020.8 1022.1 0.0
23/01:30am -5.1 -7.7 -5.2 99 -0.2 CALM 0 0 0 0 1021.1 1022.5 0.0
23/01:19am -4.2 -6.7 -4.3 99 -0.1 CALM 0 0 0 0 1021.3 1022.6 0.0
23/01:00am -5.1 -7.7 -5.4 98 -0.1 CALM 0 0 0 0 1021.3 1022.6 0.0
23/12:30am -4.4 -7.0 -4.5 99 -0.2 CALM 0 0 0 0 1021.5 1022.8 0.0
23/12:00am -4.6 -7.6 -5.0 97 -0.1 NNW 2 6 1 3 1021.8 1023.2 0.0
 
Date/Time
EST
Temp
°C
App
Temp
°C
Dew
Point
°C
Rel
Hum
%
Delta-T
°C
Wind Press
QNH
hPa
Press
MSL
hPa
Rain since
9am
mm
Dir  Spd
km/h
Gust
km/h
Spd
kts
Gust
kts
22/11:30pm -3.9 -6.4 -4.0 99 -0.1 CALM 0 7 0 4 1022.0 1023.4 0.0
22/11:00pm -4.0 -6.5 -4.4 97 0.0 CALM 0 0 0 0 1022.8 1024.2 0.0
22/10:30pm -3.6 -7.2 -4.0 97 0.0 N 6 9 3 5 1022.9 1024.3 0.0
22/10:00pm -3.2 -5.6 -3.5 98 0.0 CALM 0 0 0 0 1023.2 1024.6 0.0
22/09:30pm -1.9 -4.2 -2.6 95 0.2 CALM 0 0 0 0 1023.2 1024.6 0.0
22/09:00pm -0.6 -3.4 -0.7 99 0.0 SW 4 7 2 4 1023.4 1024.8 0.0
22/08:30pm -1.6 -3.8 -1.7 99 0.0 CALM 0 0 0 0 1023.6 1024.9 0.0
22/08:00pm -1.8 -4.2 -2.8 93 0.3 CALM 0 0 0 0 1023.7 1025.1 0.0
22/07:30pm 0.2 -2.0 -1.5 88 0.6 CALM 0 0 0 0 1023.8 1025.2 0.0
22/07:00pm 2.1 0.3 1.2 94 0.4 CALM 0 0 0 0 1023.7 1025.1 0.0
22/06:30pm 1.5 -2.2 -0.3 88 0.7 SW 9 11 5 6 1023.8 1025.2 0.0
22/06:00pm 4.7 1.4 2.6 86 0.9 W 9 11 5 6 1023.7 1025.1 0.0
22/05:30pm 5.2 1.2 2.7 84 1.1 WSW 13 15 7 8 1023.3 1024.7 0.0
22/05:00pm 5.1 0.5 1.8 79 1.4 WSW 15 19 8 10 1023.1 1024.5 0.0
22/04:30pm 7.4 3.1 3.5 76 1.8 WSW 15 17 8 9 1023.0 1024.4 0.0
22/04:00pm 8.3 4.5 3.9 74 2.0 SW 13 17 7 9 1022.8 1024.2 0.0
22/03:30pm 9.4 5.2 4.0 69 2.5 SW 15 19 8 10 1023.1 1024.5 0.0
22/03:00pm 9.4 5.3 4.2 70 2.4 SW 15 19 8 10 1023.3 1024.7 0.0
22/02:30pm 10.6 7.6 4.3 65 3.0 ESE 9 13 5 7 1023.4 1024.8 0.0
22/02:00pm 11.3 9.0 2.6 55 4.0 ENE 4 7 2 4 1023.4 1024.8 0.0
22/01:30pm 11.1 7.5 3.2 58 3.7 ENE 11 13 6 7 1023.7 1025.1 0.0
22/01:00pm 11.2 7.2 3.0 57 3.8 NE 13 19 7 10 1023.9 1025.3 0.0
22/12:30pm 10.5 6.2 3.3 61 3.3 NE 15 19 8 10 1024.2 1025.6 0.0
22/12:00pm 9.8 5.1 2.9 62 3.1 NE 17 22 9 12 1024.9 1026.3 0.0
22/11:30am 8.8 4.2 3.6 70 2.4 NE 17 22 9 12 1025.5 1027.0 0.0
22/11:00am 7.9 3.1 2.8 70 2.3 NE 17 22 9 12 1026.1 1027.5 0.0
22/10:30am 6.9 2.0 2.0 71 2.1 NNE 17 22 9 12 1026.4 1027.9 0.0
22/10:00am 5.4 1.3 2.4 81 1.3 NE 13 19 7 10 1026.8 1028.3 0.0
22/09:30am 3.8 -0.3 2.3 90 0.6 NE 13 17 7 9 1026.9 1028.4 0.0
22/09:00am 2.5 -1.7 1.9 96 0.2 NE 13 17 7 9 1027.2 1028.6 0.2
22/08:30am 1.5 -2.4 1.4 99 0.0 NE 11 15 6 8 1027.2 1028.6 0.2
22/08:00am 0.3 -4.5 0.2 99 0.0 NE 15 17 8 9 1027.2 1028.6 0.0
22/07:30am 0.1 -5.1 0.1 100 0.0 NE 17 20 9 11 1027.2 1028.6 0.0
22/07:25am 0.1 -5.1 0.0 99 0.0 NE 17 19 9 10 1027.3 1028.8 0.0
22/07:19am 0.2 -4.6 0.2 100 0.0 NE 15 17 8 9 1027.3 1028.8 0.0
22/07:00am 0.9 -3.4 0.9 100 0.0 NNE 13 17 7 9 1027.2 1028.6 0.0
22/06:53am 1.0 -3.3 1.0 100 0.0 NE 13 17 7 9 1027.1 1028.5 0.0
22/06:30am 0.4 -4.4 0.4 100 0.0 NE 15 17 8 9 1026.9 1028.4 0.0
22/06:00am 0.5 -3.9 0.5 100 0.0 ENE 13 15 7 8 1026.6 1028.1 0.0
22/05:30am -1.6 -5.9 -1.7 99 0.0 NNE 11 15 6 8 1026.6 1028.1 0.0
22/05:11am -0.2 -5.1 -0.2 100 0.0 NE 15 17 8 9 1026.6 1028.1 0.0
22/05:00am -0.5 -4.3 -0.6 99 0.0 NE 9 13 5 7 1026.6 1028.1 0.0
22/04:43am -1.5 -4.1 -1.6 99 0.0 NNE 2 7 1 4 1026.5 1028.0 0.0
22/04:41am -1.1 -3.3 -1.2 99 0.0 CALM 0 0 0 0 1026.6 1028.1 0.0
22/04:30am -0.9 -3.1 -1.2 98 0.1 CALM 0 0 0 0 1026.5 1028.0 0.0
22/04:02am 1.2 -0.6 1.1 99 0.0 CALM 0 0 0 0 1026.6 1028.1 0.0
22/04:00am 1.5 -0.3 1.4 99 0.0 CALM 0 0 0 0 1026.6 1028.1 0.0
22/03:47am 2.1 0.4 2.0 99 0.0 CALM 0 0 0 0 1026.6 1028.1 0.0
22/03:30am 2.7 -0.2 2.7 100 0.0 N 7 9 4 5 1026.7 1028.2 0.0
22/03:00am 2.7 -0.6 2.7 100 0.0 NNE 9 9 5 5 1027.3 1028.8 0.0
22/02:30am 2.9 1.4 2.8 99 0.0 CALM 0 0 0 0 1027.2 1028.6 0.0
22/02:00am 3.1 1.6 3.1 100 0.0 CALM 0 0 0 0 1027.2 1028.6 0.0
22/01:30am 2.8 1.3 2.8 100 0.0 CALM 0 0 0 0 1027.3 1028.8 0.0
22/01:16am 2.5 0.9 2.4 99 0.0 CALM 0 0 0 0 1027.4 1028.9 0.0
22/01:00am 2.8 1.3 2.8 100 0.0 CALM 0 0 0 0 1027.6 1029.1 0.0
22/12:38am 3.0 1.5 3.0 100 0.0 CALM 0 0 0 0 1027.8 1029.3 0.0
22/12:30am 2.9 1.4 2.9 100 0.0 CALM 0 0 0 0 1027.8 1029.3 0.0
22/12:00am 2.6 1.0 2.6 100 0.0 CALM 0 0 0 0 1028.0 1029.5 0.0
 
Date/Time
EST
Temp
°C
App
Temp
°C
Dew
Point
°C
Rel
Hum
%
Delta-T
°C
Wind Press
QNH
hPa
Press
MSL
hPa
Rain since
9am
mm
Dir  Spd
km/h
Gust
km/h
Spd
kts
Gust
kts
21/11:30pm 2.6 1.0 2.6 100 0.0 CALM 0 0 0 0 1028.0 1029.5 0.0
21/11:00pm 2.6 0.7 2.6 100 0.0 SSW 2 6 1 3 1028.3 1029.8 0.0
21/10:30pm 2.6 -1.1 2.6 100 0.0 SW 11 11 6 6 1028.5 1030.0 0.0
21/10:20pm 2.8 -0.4 2.8 100 0.0 WSW 9 11 5 6 1028.6 1030.1 0.0
21/10:00pm 2.1 -0.9 2.1 100 0.0 SSW 7 9 4 5 1028.7 1030.2 0.0
21/09:48pm 2.0 -1.0 2.0 100 0.0 SSW 7 9 4 5 1028.8 1030.3 0.0
21/09:30pm 1.9 -1.1 1.9 100 0.0 SSW 7 9 4 5 1028.8 1030.3 0.0
21/09:00pm 1.5 -1.6 1.5 100 0.0 SSW 7 9 4 5 1028.6 1030.1 0.0
21/08:30pm 0.4 -2.9 0.3 99 0.0 SW 7 9 4 5 1028.4 1029.9 0.0
21/08:00pm 0.5 -2.6 0.4 99 0.0 W 6 11 3 6 1028.1 1029.6 0.0
21/07:30pm 1.6 -1.9 1.5 99 0.0 SSW 9 13 5 7 1028.1 1029.6 0.0
21/07:00pm 2.6 -1.9 2.3 98 0.1 WSW 15 17 8 9 1027.8 1029.3 0.0
21/06:30pm 3.8 0.5 2.6 92 0.5 WSW 9 11 5 6 1027.7 1029.2 0.0
21/06:00pm 4.4 1.2 3.2 92 0.5 SW 9 13 5 7 1027.6 1029.1 0.0
21/05:30pm 3.8 0.7 1.5 85 1.0 S 7 11 4 6 1027.3 1028.8 0.0
21/05:00pm 4.1 0.1 0.8 79 1.3 S 11 11 6 6 1026.8 1028.3 0.0
21/04:30pm 7.8 4.1 2.3 68 2.4 S 11 13 6 7 1026.6 1028.1 0.0
21/04:00pm 9.6 5.5 2.0 59 3.4 S 13 17 7 9 1026.3 1027.7 0.0
21/03:30pm 10.4 6.6 2.0 56 3.8 S 11 17 6 9 1026.1 1027.5 0.0
21/03:00pm 10.6 6.7 1.4 53 4.0 SSW 11 17 6 9 1025.8 1027.3 0.0
21/02:30pm 10.5 5.8 1.1 52 4.1 S 15 20 8 11 1025.7 1027.2 0.0
21/02:00pm 10.4 6.0 0.2 49 4.4 S 13 17 7 9 1025.6 1027.1 0.0
21/01:30pm 10.5 6.6 1.3 53 4.1 S 11 17 6 9 1025.7 1027.2 0.0
21/01:00pm 10.4 5.9 2.3 57 3.6 SSW 15 20 8 11 1026.2 1027.6 0.0
21/12:30pm 10.3 6.7 0.6 51 4.2 S 9 17 5 9 1026.5 1028.0 0.0
21/12:00pm 10.2 6.5 -0.3 48 4.4 S 9 17 5 9 1026.8 1028.3 0.0
21/11:30am 11.2 8.5 -2.6 38 5.6 WSW 2 11 1 6 1027.2 1028.6 0.0
21/11:00am 10.3 7.8 -3.7 37 5.5 CALM 0 0 0 0 1027.6 1029.1 0.0
21/10:30am 8.7 6.5 -1.4 49 4.1 CALM 0 0 0 0 1027.8 1029.3 0.0
21/10:00am 5.1 2.8 -2.2 59 2.8 CALM 0 0 0 0 1027.8 1029.3 0.0
21/09:30am 3.2 -0.3 -2.9 64 2.2 SSW 6 7 3 4 1027.8 1029.3 0.0
21/09:00am 1.4 -0.8 -1.7 80 1.1 CALM 0 0 0 0 1027.7 1029.2 0.2
21/08:30am -1.3 -3.6 -2.3 93 0.3 CALM 0 6 0 3 1027.4 1028.9 0.2
21/08:00am -5.2 -8.3 -6.3 92 0.1 SW 2 6 1 3 1027.3 1028.8 0.2
21/07:30am -6.3 -9.2 -7.8 89 0.2 CALM 0 0 0 0 1027.1 1028.5 0.2
21/07:00am -6.6 -9.4 -7.4 94 0.0 CALM 0 0 0 0 1026.6 1028.1 0.2
21/06:30am -7.4 -10.8 -9.2 87 0.2 SW 2 9 1 5 1026.0 1027.4 0.2
21/06:00am -6.5 -10.8 -9.5 79 0.6 SW 7 9 4 5 1025.5 1027.0 0.2
21/05:30am -4.5 -9.3 -6.3 87 0.4 SW 11 13 6 7 1025.1 1026.5 0.2
21/05:00am -6.9 -11.5 -8.3 90 0.1 SW 9 11 5 6 1024.6 1026.1 0.2
21/04:30am -5.5 -10.1 -7.5 86 0.4 SW 9 9 5 5 1024.5 1026.0 0.2
21/04:00am -7.1 -11.4 -9.2 85 0.3 SW 7 9 4 5 1024.5 1026.0 0.2
21/03:30am -5.5 -8.4 -7.6 85 0.4 CALM 0 0 0 0 1024.8 1026.2 0.2
21/03:00am -3.7 -7.7 -5.8 85 0.5 SW 7 9 4 5 1024.9 1026.3 0.2
21/02:30am -5.3 -9.9 -7.9 82 0.6 SW 9 11 5 6 1024.4 1025.8 0.2
21/02:00am -6.2 -10.4 -7.6 90 0.2 SW 7 9 4 5 1024.6 1026.1 0.2
21/01:30am -6.5 -10.5 -7.6 92 0.1 SW 6 9 3 5 1024.8 1026.2 0.2
21/01:00am -6.5 -10.5 -8.0 89 0.2 SW 6 9 3 5 1024.8 1026.2 0.2
21/12:30am -6.5 -10.5 -8.0 89 0.2 SW 6 9 3 5 1024.9 1026.3 0.2
21/12:00am -6.0 -10.2 -7.7 88 0.3 SW 7 9 4 5 1025.3 1026.7 0.2
 
Date/Time
EST
Temp
°C
App
Temp
°C
Dew
Point
°C
Rel
Hum
%
Delta-T
°C
Wind Press
QNH
hPa
Press
MSL
hPa
Rain since
9am
mm
Dir  Spd
km/h
Gust
km/h
Spd
kts
Gust
kts
20/11:30pm -4.9 -8.9 -6.0 92 0.1 SW 7 9 4 5 1025.3 1026.7 0.2
20/11:00pm -5.5 -10.0 -6.9 90 0.2 SW 9 11 5 6 1025.6 1027.1 0.2
20/10:30pm -4.7 -7.4 -5.9 91 0.2 CALM 0 0 0 0 1025.8 1027.3 0.2
20/10:00pm -3.1 -5.6 -3.9 94 0.1 CALM 0 0 0 0 1025.8 1027.3 0.2
20/09:30pm -3.2 -6.2 -4.7 89 0.4 SW 2 7 1 4 1026.1 1027.5 0.2
20/09:00pm -1.4 -3.6 -1.5 99 0.0 CALM 0 0 0 0 1026.1 1027.5 0.2
20/08:30pm -1.4 -3.6 -1.5 99 0.0 CALM 0 0 0 0 1025.7 1027.2 0.2
20/08:00pm -0.9 -4.4 -1.0 99 0.0 N 7 9 4 5 1025.6 1027.1 0.2
20/07:30pm -0.5 -2.6 -0.6 99 0.0 CALM 0 0 0 0 1025.4 1026.8 0.2
20/07:00pm -1.0 -3.1 -1.1 99 0.0 CALM 0 0 0 0 1025.4 1026.8 0.2
20/06:30pm -0.7 -2.9 -1.8 92 0.4 CALM 0 0 0 0 1025.2 1026.6 0.2
20/06:00pm 1.4 -0.4 1.3 99 0.0 CALM 0 0 0 0 1025.0 1026.4 0.2
20/05:30pm 2.9 1.0 0.3 83 1.0 CALM 0 0 0 0 1024.9 1026.3 0.2
20/05:00pm 5.1 3.3 1.0 75 1.7 CALM 0 0 0 0 1024.9 1026.3 0.2
20/04:30pm 9.3 8.0 4.3 71 2.3 CALM 0 0 0 0 1024.8 1026.2 0.2
20/04:00pm 10.8 8.9 5.1 68 2.7 NNE 4 6 2 3 1024.5 1026.0 0.2
20/03:30pm 11.3 9.5 5.4 67 2.9 NE 4 7 2 4 1024.5 1026.0 0.2
20/03:00pm 10.7 7.9 5.0 68 2.7 NE 9 11 5 6 1024.5 1026.0 0.2
20/02:30pm 10.1 6.9 5.3 72 2.3 NE 11 17 6 9 1024.5 1026.0 0.2
20/02:00pm 9.6 5.4 5.6 76 1.9 NE 17 19 9 10 1024.5 1026.0 0.2
20/01:30pm 9.0 4.8 5.6 79 1.6 NE 17 20 9 11 1024.9 1026.3 0.2
20/01:00pm 7.9 3.4 5.9 87 1.0 NE 19 22 10 12 1025.2 1026.6 0.2
20/12:30pm 6.5 1.9 5.6 94 0.4 NE 19 22 10 12 1025.6 1027.1 0.2
20/12:15pm 5.7 1.1 5.6 99 0.0 NE 19 24 10 13 1026.0 1027.4 0.2
20/12:00pm 5.2 0.5 5.1 99 0.0 NE 19 22 10 12 1026.2 1027.6 0.2
20/11:30am 4.1 -0.8 4.1 100 0.0 NE 19 24 10 13 1026.8 1028.3 0.2
20/11:10am 3.3 -1.9 3.3 100 0.0 NNE 20 24 11 13 1027.3 1028.8 0.2
20/11:00am 3.5 -1.5 3.5 100 0.0 NNE 19 22 10 12 1027.4 1028.9 0.2
20/10:30am 1.5 -3.9 1.5 100 0.0 NNE 19 20 10 11 1028.0 1029.5 0.2
20/10:00am -0.1 -5.3 -0.1 100 0.0 NNE 17 19 9 10 1028.3 1029.8 0.2
20/09:30am -1.1 -6.5 -1.1 100 0.0 NNE 17 19 9 10 1028.4 1029.9 0.0
20/09:00am -1.6 -6.7 -1.6 100 0.0 NNE 15 19 8 10 1028.4 1029.9 0.0
20/08:30am -2.3 -7.5 -2.4 99 -0.1 NNE 15 17 8 9 1028.4 1029.9 -

Latest Capital City Observations: Canberra | Sydney | Melbourne | Brisbane | Adelaide | Perth | Hobart | Darwin

Other Formats:

Comma delimited format used in spreadsheet applications
http://www.bom.gov.au/fwo/IDN60903/IDN60903.94921.axf

JavaScript Object Notation format (JSON) in row-major order
http://www.bom.gov.au/fwo/IDN60903/IDN60903.94921.json